sensor_id;sensor_type;location;lat;lon;timestamp;P1;durP1;ratioP1;P2;durP2;ratioP2
40012;SDS011;37387;42.672;23.334;2023-05-02T00:00:43;3.5;;;2.8;;
40012;SDS011;37387;42.672;23.334;2023-05-02T00:01:43;3.7;;;2.7;;
40012;SDS011;37387;42.672;23.334;2023-05-02T00:02:43;3.8;;;2.8;;
40012;SDS011;37387;42.672;23.334;2023-05-02T00:03:43;5.2;;;3.0;;
40012;SDS011;37387;42.672;23.334;2023-05-02T00:04:43;3.9;;;2.9;;
40012;SDS011;37387;42.672;23.334;2023-05-02T00:07:43;5.9;;;2.3;;
40012;SDS011;37387;42.672;23.334;2023-05-02T00:08:43;3.3;;;2.6;;
40012;SDS011;37387;42.672;23.334;2023-05-02T00:09:43;3.5;;;2.4;;
40012;SDS011;37387;42.672;23.334;2023-05-02T00:10:43;4.5;;;2.7;;
40012;SDS011;37387;42.672;23.334;2023-05-02T00:11:43;4.5;;;2.5;;
40012;SDS011;37387;42.672;23.334;2023-05-02T00:12:43;3.1;;;2.6;;
40012;SDS011;37387;42.672;23.334;2023-05-02T00:13:43;3.7;;;2.5;;
40012;SDS011;37387;42.672;23.334;2023-05-02T00:14:43;3.8;;;2.8;;
40012;SDS011;37387;42.672;23.334;2023-05-02T00:15:43;4.0;;;2.7;;
40012;SDS011;37387;42.672;23.334;2023-05-02T00:16:43;3.5;;;2.5;;
40012;SDS011;37387;42.672;23.334;2023-05-02T00:17:43;4.1;;;2.7;;
40012;SDS011;37387;42.672;23.334;2023-05-02T00:18:43;6.0;;;3.4;;
40012;SDS011;37387;42.672;23.334;2023-05-02T00:19:43;5.0;;;3.2;;
40012;SDS011;37387;42.672;23.334;2023-05-02T00:20:43;3.9;;;2.6;;
40012;SDS011;37387;42.672;23.334;2023-05-02T00:22:43;3.7;;;2.7;;
40012;SDS011;37387;42.672;23.334;2023-05-02T00:23:43;4.5;;;2.6;;
40012;SDS011;37387;42.672;23.334;2023-05-02T00:24:43;4.9;;;2.9;;
40012;SDS011;37387;42.672;23.334;2023-05-02T00:25:43;3.5;;;2.8;;
40012;SDS011;37387;42.672;23.334;2023-05-02T00:26:43;3.5;;;2.7;;
40012;SDS011;37387;42.672;23.334;2023-05-02T00:27:43;4.0;;;2.8;;
40012;SDS011;37387;42.672;23.334;2023-05-02T00:28:43;5.5;;;3.2;;
40012;SDS011;37387;42.672;23.334;2023-05-02T00:30:43;4.3;;;3.0;;
40012;SDS011;37387;42.672;23.334;2023-05-02T00:31:43;3.1;;;2.3;;
40012;SDS011;37387;42.672;23.334;2023-05-02T00:32:43;3.1;;;2.8;;
40012;SDS011;37387;42.672;23.334;2023-05-02T00:33:42;4.2;;;2.7;;
40012;SDS011;37387;42.672;23.334;2023-05-02T00:34:43;3.4;;;2.9;;
40012;SDS011;37387;42.672;23.334;2023-05-02T00:35:42;3.5;;;2.8;;
40012;SDS011;37387;42.672;23.334;2023-05-02T00:36:42;3.9;;;3.0;;
40012;SDS011;37387;42.672;23.334;2023-05-02T00:37:42;3.9;;;3.1;;
40012;SDS011;37387;42.672;23.334;2023-05-02T00:38:42;3.9;;;2.9;;
40012;SDS011;37387;42.672;23.334;2023-05-02T00:40:43;3.8;;;3.0;;
40012;SDS011;37387;42.672;23.334;2023-05-02T00:41:42;3.8;;;3.1;;
40012;SDS011;37387;42.672;23.334;2023-05-02T00:44:42;5.8;;;3.4;;
40012;SDS011;37387;42.672;23.334;2023-05-02T00:45:43;4.5;;;2.5;;
40012;SDS011;37387;42.672;23.334;2023-05-02T00:46:42;4.1;;;2.9;;
40012;SDS011;37387;42.672;23.334;2023-05-02T00:48:42;3.5;;;3.1;;
40012;SDS011;37387;42.672;23.334;2023-05-02T00:49:42;4.8;;;3.0;;
40012;SDS011;37387;42.672;23.334;2023-05-02T00:51:42;4.0;;;3.2;;
40012;SDS011;37387;42.672;23.334;2023-05-02T00:52:42;4.5;;;2.9;;
40012;SDS011;37387;42.672;23.334;2023-05-02T00:53:42;5.2;;;3.0;;
40012;SDS011;37387;42.672;23.334;2023-05-02T00:54:42;5.2;;;3.1;;
40012;SDS011;37387;42.672;23.334;2023-05-02T00:55:43;4.4;;;2.9;;
40012;SDS011;37387;42.672;23.334;2023-05-02T00:56:42;4.1;;;3.2;;
40012;SDS011;37387;42.672;23.334;2023-05-02T00:57:42;4.1;;;2.9;;
40012;SDS011;37387;42.672;23.334;2023-05-02T00:58:42;3.9;;;2.3;;
40012;SDS011;37387;42.672;23.334;2023-05-02T00:59:42;3.9;;;2.9;;
40012;SDS011;37387;42.672;23.334;2023-05-02T01:01:46;4.4;;;3.1;;
40012;SDS011;37387;42.672;23.334;2023-05-02T01:02:46;4.7;;;3.2;;
40012;SDS011;37387;42.672;23.334;2023-05-02T01:03:45;3.7;;;3.0;;
40012;SDS011;37387;42.672;23.334;2023-05-02T01:04:43;3.7;;;3.2;;
40012;SDS011;37387;42.672;23.334;2023-05-02T01:05:43;5.6;;;2.9;;
40012;SDS011;37387;42.672;23.334;2023-05-02T01:06:46;3.8;;;3.0;;
40012;SDS011;37387;42.672;23.334;2023-05-02T01:08:44;4.3;;;3.4;;
40012;SDS011;37387;42.672;23.334;2023-05-02T01:09:46;3.6;;;2.9;;
40012;SDS011;37387;42.672;23.334;2023-05-02T01:10:46;3.9;;;2.7;;
40012;SDS011;37387;42.672;23.334;2023-05-02T01:11:43;3.9;;;3.0;;
40012;SDS011;37387;42.672;23.334;2023-05-02T01:12:44;3.7;;;3.6;;
40012;SDS011;37387;42.672;23.334;2023-05-02T01:14:44;4.4;;;3.1;;
40012;SDS011;37387;42.672;23.334;2023-05-02T01:15:42;4.4;;;3.3;;
40012;SDS011;37387;42.672;23.334;2023-05-02T01:16:42;6.0;;;3.1;;
40012;SDS011;37387;42.672;23.334;2023-05-02T01:18:42;4.8;;;3.4;;
40012;SDS011;37387;42.672;23.334;2023-05-02T01:19:43;4.3;;;3.1;;
40012;SDS011;37387;42.672;23.334;2023-05-02T01:20:42;4.3;;;3.2;;
40012;SDS011;37387;42.672;23.334;2023-05-02T01:21:42;3.8;;;3.4;;
40012;SDS011;37387;42.672;23.334;2023-05-02T01:22:42;4.4;;;3.1;;
40012;SDS011;37387;42.672;23.334;2023-05-02T01:23:45;5.4;;;3.4;;
40012;SDS011;37387;42.672;23.334;2023-05-02T01:24:47;5.4;;;3.2;;
40012;SDS011;37387;42.672;23.334;2023-05-02T01:25:47;4.6;;;3.1;;
40012;SDS011;37387;42.672;23.334;2023-05-02T01:27:53;4.9;;;3.4;;
40012;SDS011;37387;42.672;23.334;2023-05-02T01:28:47;4.9;;;3.2;;
40012;SDS011;37387;42.672;23.334;2023-05-02T01:29:42;4.0;;;3.0;;
40012;SDS011;37387;42.672;23.334;2023-05-02T01:30:42;4.0;;;3.6;;
40012;SDS011;37387;42.672;23.334;2023-05-02T01:31:43;10.8;;;3.3;;
40012;SDS011;37387;42.672;23.334;2023-05-02T01:32:42;4.7;;;3.0;;
40012;SDS011;37387;42.672;23.334;2023-05-02T01:33:42;4.1;;;2.8;;
40012;SDS011;37387;42.672;23.334;2023-05-02T01:34:42;4.4;;;3.1;;
40012;SDS011;37387;42.672;23.334;2023-05-02T01:35:42;4.4;;;2.7;;
40012;SDS011;37387;42.672;23.334;2023-05-02T01:36:42;4.1;;;3.0;;
40012;SDS011;37387;42.672;23.334;2023-05-02T01:39:42;4.7;;;3.6;;
40012;SDS011;37387;42.672;23.334;2023-05-02T01:40:42;4.7;;;2.9;;
40012;SDS011;37387;42.672;23.334;2023-05-02T01:41:42;5.2;;;3.3;;
40012;SDS011;37387;42.672;23.334;2023-05-02T01:42:42;5.2;;;3.2;;
40012;SDS011;37387;42.672;23.334;2023-05-02T01:43:42;4.8;;;3.6;;
40012;SDS011;37387;42.672;23.334;2023-05-02T01:44:42;4.5;;;3.0;;
40012;SDS011;37387;42.672;23.334;2023-05-02T01:45:43;5.9;;;3.4;;
40012;SDS011;37387;42.672;23.334;2023-05-02T01:46:42;5.9;;;3.3;;
40012;SDS011;37387;42.672;23.334;2023-05-02T01:47:42;4.4;;;3.1;;
40012;SDS011;37387;42.672;23.334;2023-05-02T01:48:43;5.9;;;3.4;;
40012;SDS011;37387;42.672;23.334;2023-05-02T01:49:42;3.9;;;3.1;;
40012;SDS011;37387;42.672;23.334;2023-05-02T01:50:42;3.9;;;3.0;;
40012;SDS011;37387;42.672;23.334;2023-05-02T01:51:43;5.0;;;2.7;;
40012;SDS011;37387;42.672;23.334;2023-05-02T01:52:42;5.0;;;3.1;;
40012;SDS011;37387;42.672;23.334;2023-05-02T01:53:42;5.3;;;3.7;;
40012;SDS011;37387;42.672;23.334;2023-05-02T01:54:42;4.6;;;3.5;;
40012;SDS011;37387;42.672;23.334;2023-05-02T01:55:43;4.6;;;3.1;;
40012;SDS011;37387;42.672;23.334;2023-05-02T01:56:42;5.3;;;2.8;;
40012;SDS011;37387;42.672;23.334;2023-05-02T01:57:42;3.9;;;3.0;;
40012;SDS011;37387;42.672;23.334;2023-05-02T01:58:42;4.5;;;3.3;;
40012;SDS011;37387;42.672;23.334;2023-05-02T01:59:41;4.3;;;2.9;;
40012;SDS011;37387;42.672;23.334;2023-05-02T02:00:42;5.2;;;3.4;;
40012;SDS011;37387;42.672;23.334;2023-05-02T02:01:41;4.6;;;2.6;;
40012;SDS011;37387;42.672;23.334;2023-05-02T02:02:42;4.3;;;3.2;;
40012;SDS011;37387;42.672;23.334;2023-05-02T02:03:41;4.5;;;2.9;;
40012;SDS011;37387;42.672;23.334;2023-05-02T02:04:41;4.6;;;3.6;;
40012;SDS011;37387;42.672;23.334;2023-05-02T02:05:41;4.6;;;2.9;;
40012;SDS011;37387;42.672;23.334;2023-05-02T02:06:43;4.1;;;3.3;;
40012;SDS011;37387;42.672;23.334;2023-05-02T02:07:41;5.0;;;3.1;;
40012;SDS011;37387;42.672;23.334;2023-05-02T02:08:41;4.2;;;3.0;;
40012;SDS011;37387;42.672;23.334;2023-05-02T02:10:42;3.8;;;2.7;;
40012;SDS011;37387;42.672;23.334;2023-05-02T02:11:43;5.1;;;3.1;;
40012;SDS011;37387;42.672;23.334;2023-05-02T02:12:42;5.2;;;3.4;;
40012;SDS011;37387;42.672;23.334;2023-05-02T02:13:43;8.1;;;4.0;;
40012;SDS011;37387;42.672;23.334;2023-05-02T02:14:42;4.4;;;3.2;;
40012;SDS011;37387;42.672;23.334;2023-05-02T02:15:41;5.3;;;3.5;;
40012;SDS011;37387;42.672;23.334;2023-05-02T02:16:41;5.4;;;3.6;;
40012;SDS011;37387;42.672;23.334;2023-05-02T02:17:42;5.4;;;3.4;;
40012;SDS011;37387;42.672;23.334;2023-05-02T02:18:41;4.2;;;2.9;;
40012;SDS011;37387;42.672;23.334;2023-05-02T02:19:41;4.9;;;3.6;;
40012;SDS011;37387;42.672;23.334;2023-05-02T02:20:42;4.9;;;3.3;;
40012;SDS011;37387;42.672;23.334;2023-05-02T02:22:41;4.3;;;3.7;;
40012;SDS011;37387;42.672;23.334;2023-05-02T02:23:41;7.5;;;3.2;;
40012;SDS011;37387;42.672;23.334;2023-05-02T02:24:41;4.9;;;3.4;;
40012;SDS011;37387;42.672;23.334;2023-05-02T02:25:41;4.9;;;3.7;;
40012;SDS011;37387;42.672;23.334;2023-05-02T02:26:41;5.9;;;3.4;;
40012;SDS011;37387;42.672;23.334;2023-05-02T02:28:41;4.6;;;3.5;;
40012;SDS011;37387;42.672;23.334;2023-05-02T02:30:41;5.3;;;3.4;;
40012;SDS011;37387;42.672;23.334;2023-05-02T02:31:41;4.0;;;3.5;;
40012;SDS011;37387;42.672;23.334;2023-05-02T02:33:41;6.2;;;3.6;;
40012;SDS011;37387;42.672;23.334;2023-05-02T02:34:41;6.2;;;3.4;;
40012;SDS011;37387;42.672;23.334;2023-05-02T02:35:41;4.7;;;3.7;;
40012;SDS011;37387;42.672;23.334;2023-05-02T02:36:43;5.5;;;3.3;;
40012;SDS011;37387;42.672;23.334;2023-05-02T02:38:43;5.6;;;3.6;;
40012;SDS011;37387;42.672;23.334;2023-05-02T02:39:43;5.6;;;3.7;;
40012;SDS011;37387;42.672;23.334;2023-05-02T02:42:42;6.4;;;3.5;;
40012;SDS011;37387;42.672;23.334;2023-05-02T02:43:43;5.3;;;3.6;;
40012;SDS011;37387;42.672;23.334;2023-05-02T02:44:46;5.5;;;4.0;;
40012;SDS011;37387;42.672;23.334;2023-05-02T02:45:44;4.5;;;3.3;;
40012;SDS011;37387;42.672;23.334;2023-05-02T02:46:43;5.1;;;3.5;;
40012;SDS011;37387;42.672;23.334;2023-05-02T02:47:41;6.7;;;3.6;;
40012;SDS011;37387;42.672;23.334;2023-05-02T02:48:42;5.2;;;4.0;;
40012;SDS011;37387;42.672;23.334;2023-05-02T02:50:42;4.2;;;3.0;;
40012;SDS011;37387;42.672;23.334;2023-05-02T02:51:43;5.4;;;3.8;;
40012;SDS011;37387;42.672;23.334;2023-05-02T02:53:43;6.2;;;3.6;;
40012;SDS011;37387;42.672;23.334;2023-05-02T02:54:43;6.2;;;3.9;;
40012;SDS011;37387;42.672;23.334;2023-05-02T02:55:43;5.0;;;3.7;;
40012;SDS011;37387;42.672;23.334;2023-05-02T02:56:41;5.3;;;3.8;;
40012;SDS011;37387;42.672;23.334;2023-05-02T02:57:42;5.3;;;4.0;;
40012;SDS011;37387;42.672;23.334;2023-05-02T02:58:42;4.9;;;3.9;;
40012;SDS011;37387;42.672;23.334;2023-05-02T02:59:45;5.4;;;3.4;;
40012;SDS011;37387;42.672;23.334;2023-05-02T03:00:40;4.5;;;4.1;;
40012;SDS011;37387;42.672;23.334;2023-05-02T03:01:41;6.0;;;3.7;;
40012;SDS011;37387;42.672;23.334;2023-05-02T03:02:40;5.9;;;4.3;;
40012;SDS011;37387;42.672;23.334;2023-05-02T03:03:40;5.9;;;4.2;;
40012;SDS011;37387;42.672;23.334;2023-05-02T03:04:40;6.1;;;3.4;;
40012;SDS011;37387;42.672;23.334;2023-05-02T03:05:40;6.9;;;4.5;;
40012;SDS011;37387;42.672;23.334;2023-05-02T03:06:40;5.6;;;3.7;;
40012;SDS011;37387;42.672;23.334;2023-05-02T03:07:40;5.2;;;4.0;;
40012;SDS011;37387;42.672;23.334;2023-05-02T03:08:40;5.2;;;4.2;;
40012;SDS011;37387;42.672;23.334;2023-05-02T03:09:40;6.1;;;3.6;;
40012;SDS011;37387;42.672;23.334;2023-05-02T03:10:40;5.5;;;4.1;;
40012;SDS011;37387;42.672;23.334;2023-05-02T03:11:40;5.5;;;4.5;;
40012;SDS011;37387;42.672;23.334;2023-05-02T03:12:40;5.2;;;3.6;;
40012;SDS011;37387;42.672;23.334;2023-05-02T03:13:40;6.6;;;4.1;;
40012;SDS011;37387;42.672;23.334;2023-05-02T03:16:40;5.5;;;4.2;;
40012;SDS011;37387;42.672;23.334;2023-05-02T03:17:40;6.9;;;4.5;;
40012;SDS011;37387;42.672;23.334;2023-05-02T03:18:40;6.9;;;5.5;;
40012;SDS011;37387;42.672;23.334;2023-05-02T03:19:40;9.1;;;4.8;;
40012;SDS011;37387;42.672;23.334;2023-05-02T03:20:40;7.3;;;4.6;;
40012;SDS011;37387;42.672;23.334;2023-05-02T03:21:40;8.3;;;4.8;;
40012;SDS011;37387;42.672;23.334;2023-05-02T03:22:40;5.9;;;4.2;;
40012;SDS011;37387;42.672;23.334;2023-05-02T03:23:40;5.9;;;4.4;;
40012;SDS011;37387;42.672;23.334;2023-05-02T03:24:40;7.9;;;4.7;;
40012;SDS011;37387;42.672;23.334;2023-05-02T03:25:40;7.9;;;4.3;;
40012;SDS011;37387;42.672;23.334;2023-05-02T03:26:40;6.4;;;4.4;;
40012;SDS011;37387;42.672;23.334;2023-05-02T03:27:40;6.1;;;4.2;;
40012;SDS011;37387;42.672;23.334;2023-05-02T03:28:39;5.6;;;3.7;;
40012;SDS011;37387;42.672;23.334;2023-05-02T03:29:39;7.4;;;4.7;;
40012;SDS011;37387;42.672;23.334;2023-05-02T03:30:39;7.1;;;4.6;;
40012;SDS011;37387;42.672;23.334;2023-05-02T03:31:39;7.1;;;4.5;;
40012;SDS011;37387;42.672;23.334;2023-05-02T03:32:39;5.8;;;4.2;;
40012;SDS011;37387;42.672;23.334;2023-05-02T03:33:39;7.1;;;4.4;;
40012;SDS011;37387;42.672;23.334;2023-05-02T03:34:39;5.2;;;4.2;;
40012;SDS011;37387;42.672;23.334;2023-05-02T03:35:39;7.3;;;4.7;;
40012;SDS011;37387;42.672;23.334;2023-05-02T03:36:39;7.3;;;4.2;;
40012;SDS011;37387;42.672;23.334;2023-05-02T03:37:39;5.9;;;4.1;;
40012;SDS011;37387;42.672;23.334;2023-05-02T03:38:39;4.8;;;4.3;;
40012;SDS011;37387;42.672;23.334;2023-05-02T03:39:39;6.6;;;4.1;;
40012;SDS011;37387;42.672;23.334;2023-05-02T03:40:39;6.6;;;4.4;;
40012;SDS011;37387;42.672;23.334;2023-05-02T03:41:39;6.8;;;4.2;;
40012;SDS011;37387;42.672;23.334;2023-05-02T03:44:39;6.1;;;4.4;;
40012;SDS011;37387;42.672;23.334;2023-05-02T03:45:39;8.0;;;4.7;;
40012;SDS011;37387;42.672;23.334;2023-05-02T03:46:39;8.0;;;4.3;;
40012;SDS011;37387;42.672;23.334;2023-05-02T03:47:39;5.8;;;4.1;;
40012;SDS011;37387;42.672;23.334;2023-05-02T03:48:39;5.7;;;4.2;;
40012;SDS011;37387;42.672;23.334;2023-05-02T03:49:39;10.6;;;4.3;;
40012;SDS011;37387;42.672;23.334;2023-05-02T03:50:39;6.6;;;3.7;;
40012;SDS011;37387;42.672;23.334;2023-05-02T03:51:39;5.5;;;4.2;;
40012;SDS011;37387;42.672;23.334;2023-05-02T03:52:39;6.2;;;4.1;;
40012;SDS011;37387;42.672;23.334;2023-05-02T03:53:39;6.9;;;4.6;;
40012;SDS011;37387;42.672;23.334;2023-05-02T03:54:39;6.9;;;4.2;;
40012;SDS011;37387;42.672;23.334;2023-05-02T03:55:39;6.2;;;4.3;;
40012;SDS011;37387;42.672;23.334;2023-05-02T03:56:39;5.8;;;4.4;;
40012;SDS011;37387;42.672;23.334;2023-05-02T03:57:39;7.6;;;3.6;;
40012;SDS011;37387;42.672;23.334;2023-05-02T03:58:39;6.1;;;4.1;;
40012;SDS011;37387;42.672;23.334;2023-05-02T03:59:39;8.6;;;4.2;;
40012;SDS011;37387;42.672;23.334;2023-05-02T04:00:39;8.6;;;3.9;;
40012;SDS011;37387;42.672;23.334;2023-05-02T04:01:39;7.1;;;3.6;;
40012;SDS011;37387;42.672;23.334;2023-05-02T04:02:39;4.2;;;3.1;;
40012;SDS011;37387;42.672;23.334;2023-05-02T04:03:39;4.2;;;3.3;;
40012;SDS011;37387;42.672;23.334;2023-05-02T04:04:39;4.7;;;3.2;;
40012;SDS011;37387;42.672;23.334;2023-05-02T04:05:39;4.7;;;3.3;;
40012;SDS011;37387;42.672;23.334;2023-05-02T04:06:39;5.7;;;3.8;;
40012;SDS011;37387;42.672;23.334;2023-05-02T04:07:39;5.7;;;2.6;;
40012;SDS011;37387;42.672;23.334;2023-05-02T04:08:39;3.7;;;3.3;;
40012;SDS011;37387;42.672;23.334;2023-05-02T04:09:39;3.7;;;3.5;;
40012;SDS011;37387;42.672;23.334;2023-05-02T04:10:39;4.6;;;3.3;;
40012;SDS011;37387;42.672;23.334;2023-05-02T04:11:38;4.6;;;3.6;;
40012;SDS011;37387;42.672;23.334;2023-05-02T04:12:38;4.7;;;3.1;;
40012;SDS011;37387;42.672;23.334;2023-05-02T04:13:39;4.5;;;3.2;;
40012;SDS011;37387;42.672;23.334;2023-05-02T04:14:39;4.5;;;2.9;;
40012;SDS011;37387;42.672;23.334;2023-05-02T04:15:39;3.7;;;3.2;;
40012;SDS011;37387;42.672;23.334;2023-05-02T04:16:39;4.1;;;3.1;;
40012;SDS011;37387;42.672;23.334;2023-05-02T04:17:39;4.1;;;3.0;;
40012;SDS011;37387;42.672;23.334;2023-05-02T04:19:39;3.8;;;3.1;;
40012;SDS011;37387;42.672;23.334;2023-05-02T04:20:39;4.2;;;2.9;;
40012;SDS011;37387;42.672;23.334;2023-05-02T04:21:39;6.3;;;3.3;;
40012;SDS011;37387;42.672;23.334;2023-05-02T04:22:39;3.8;;;3.0;;
40012;SDS011;37387;42.672;23.334;2023-05-02T04:23:39;4.9;;;3.4;;
40012;SDS011;37387;42.672;23.334;2023-05-02T04:24:39;4.9;;;3.2;;
40012;SDS011;37387;42.672;23.334;2023-05-02T04:25:39;6.2;;;3.5;;
40012;SDS011;37387;42.672;23.334;2023-05-02T04:26:39;5.0;;;2.9;;
40012;SDS011;37387;42.672;23.334;2023-05-02T04:27:39;4.7;;;3.0;;
40012;SDS011;37387;42.672;23.334;2023-05-02T04:28:39;4.8;;;3.2;;
40012;SDS011;37387;42.672;23.334;2023-05-02T04:30:39;4.8;;;2.9;;
40012;SDS011;37387;42.672;23.334;2023-05-02T04:31:39;6.5;;;3.1;;
40012;SDS011;37387;42.672;23.334;2023-05-02T04:32:39;5.6;;;2.9;;
40012;SDS011;37387;42.672;23.334;2023-05-02T04:33:39;5.0;;;3.0;;
40012;SDS011;37387;42.672;23.334;2023-05-02T04:34:39;6.2;;;3.2;;
40012;SDS011;37387;42.672;23.334;2023-05-02T04:35:39;8.3;;;4.4;;
40012;SDS011;37387;42.672;23.334;2023-05-02T04:36:39;8.3;;;3.0;;
40012;SDS011;37387;42.672;23.334;2023-05-02T04:38:39;4.1;;;6.7;;
40012;SDS011;37387;42.672;23.334;2023-05-02T04:39:39;9.8;;;2.8;;
40012;SDS011;37387;42.672;23.334;2023-05-02T04:40:39;3.5;;;2.7;;
40012;SDS011;37387;42.672;23.334;2023-05-02T04:41:39;3.5;;;2.8;;
40012;SDS011;37387;42.672;23.334;2023-05-02T04:42:39;4.4;;;2.9;;
40012;SDS011;37387;42.672;23.334;2023-05-02T04:43:39;4.4;;;3.3;;
40012;SDS011;37387;42.672;23.334;2023-05-02T04:45:39;4.1;;;2.8;;
40012;SDS011;37387;42.672;23.334;2023-05-02T04:46:39;6.9;;;2.9;;
40012;SDS011;37387;42.672;23.334;2023-05-02T04:47:39;6.7;;;3.3;;
40012;SDS011;37387;42.672;23.334;2023-05-02T04:48:39;6.7;;;2.8;;
40012;SDS011;37387;42.672;23.334;2023-05-02T04:50:39;5.5;;;2.6;;
40012;SDS011;37387;42.672;23.334;2023-05-02T04:51:39;5.3;;;3.0;;
40012;SDS011;37387;42.672;23.334;2023-05-02T04:52:39;3.6;;;2.7;;
40012;SDS011;37387;42.672;23.334;2023-05-02T04:53:39;3.6;;;2.4;;
40012;SDS011;37387;42.672;23.334;2023-05-02T04:54:39;4.1;;;2.8;;
40012;SDS011;37387;42.672;23.334;2023-05-02T04:55:39;4.1;;;2.3;;
40012;SDS011;37387;42.672;23.334;2023-05-02T04:56:40;3.3;;;2.5;;
40012;SDS011;37387;42.672;23.334;2023-05-02T04:57:40;3.3;;;2.8;;
40012;SDS011;37387;42.672;23.334;2023-05-02T04:58:40;4.6;;;2.3;;
40012;SDS011;37387;42.672;23.334;2023-05-02T04:59:40;3.3;;;2.6;;
40012;SDS011;37387;42.672;23.334;2023-05-02T05:00:40;3.2;;;2.4;;
40012;SDS011;37387;42.672;23.334;2023-05-02T05:01:40;3.9;;;2.9;;
40012;SDS011;37387;42.672;23.334;2023-05-02T05:02:40;3.9;;;1.5;;
40012;SDS011;37387;42.672;23.334;2023-05-02T05:03:40;2.1;;;2.8;;
40012;SDS011;37387;42.672;23.334;2023-05-02T05:04:40;4.5;;;2.4;;
40012;SDS011;37387;42.672;23.334;2023-05-02T05:05:40;2.8;;;2.1;;
40012;SDS011;37387;42.672;23.334;2023-05-02T05:06:40;2.3;;;1.6;;
40012;SDS011;37387;42.672;23.334;2023-05-02T05:07:40;3.2;;;2.3;;
40012;SDS011;37387;42.672;23.334;2023-05-02T05:08:40;3.2;;;2.5;;
40012;SDS011;37387;42.672;23.334;2023-05-02T05:09:40;4.3;;;2.2;;
40012;SDS011;37387;42.672;23.334;2023-05-02T05:10:40;4.3;;;2.5;;
40012;SDS011;37387;42.672;23.334;2023-05-02T05:11:40;3.8;;;2.4;;
40012;SDS011;37387;42.672;23.334;2023-05-02T05:12:40;3.7;;;2.1;;
40012;SDS011;37387;42.672;23.334;2023-05-02T05:13:40;3.7;;;2.7;;
40012;SDS011;37387;42.672;23.334;2023-05-02T05:14:40;4.3;;;3.0;;
40012;SDS011;37387;42.672;23.334;2023-05-02T05:15:40;4.4;;;2.6;;
40012;SDS011;37387;42.672;23.334;2023-05-02T05:16:40;3.3;;;2.3;;
40012;SDS011;37387;42.672;23.334;2023-05-02T05:17:40;3.3;;;2.4;;
40012;SDS011;37387;42.672;23.334;2023-05-02T05:18:40;5.8;;;1.8;;
40012;SDS011;37387;42.672;23.334;2023-05-02T05:19:40;4.2;;;2.1;;
40012;SDS011;37387;42.672;23.334;2023-05-02T05:20:40;3.3;;;4.2;;
40012;SDS011;37387;42.672;23.334;2023-05-02T05:21:40;7.5;;;2.7;;
40012;SDS011;37387;42.672;23.334;2023-05-02T05:22:40;5.1;;;2.6;;
40012;SDS011;37387;42.672;23.334;2023-05-02T05:24:40;5.1;;;2.5;;
40012;SDS011;37387;42.672;23.334;2023-05-02T05:25:40;5.1;;;2.1;;
40012;SDS011;37387;42.672;23.334;2023-05-02T05:27:40;3.8;;;2.3;;
40012;SDS011;37387;42.672;23.334;2023-05-02T05:28:40;5.0;;;2.4;;
40012;SDS011;37387;42.672;23.334;2023-05-02T05:29:40;2.9;;;2.0;;
40012;SDS011;37387;42.672;23.334;2023-05-02T05:30:40;2.9;;;2.2;;
40012;SDS011;37387;42.672;23.334;2023-05-02T05:31:40;3.7;;;2.4;;
40012;SDS011;37387;42.672;23.334;2023-05-02T05:32:40;4.6;;;2.6;;
40012;SDS011;37387;42.672;23.334;2023-05-02T05:35:40;2.7;;;2.2;;
40012;SDS011;37387;42.672;23.334;2023-05-02T05:37:40;4.0;;;2.6;;
40012;SDS011;37387;42.672;23.334;2023-05-02T05:41:40;4.5;;;1.9;;
40012;SDS011;37387;42.672;23.334;2023-05-02T05:42:40;3.2;;;2.5;;
40012;SDS011;37387;42.672;23.334;2023-05-02T05:43:41;4.4;;;2.4;;
40012;SDS011;37387;42.672;23.334;2023-05-02T05:44:41;4.1;;;2.6;;
40012;SDS011;37387;42.672;23.334;2023-05-02T05:45:41;4.1;;;2.4;;
40012;SDS011;37387;42.672;23.334;2023-05-02T05:46:41;4.2;;;2.0;;
40012;SDS011;37387;42.672;23.334;2023-05-02T05:47:41;3.0;;;2.1;;
40012;SDS011;37387;42.672;23.334;2023-05-02T05:48:41;3.0;;;2.6;;
40012;SDS011;37387;42.672;23.334;2023-05-02T05:49:41;2.8;;;2.1;;
40012;SDS011;37387;42.672;23.334;2023-05-02T05:51:41;2.8;;;2.2;;
40012;SDS011;37387;42.672;23.334;2023-05-02T05:52:41;3.4;;;2.4;;
40012;SDS011;37387;42.672;23.334;2023-05-02T05:53:41;4.4;;;2.3;;
40012;SDS011;37387;42.672;23.334;2023-05-02T05:55:41;5.0;;;3.1;;
40012;SDS011;37387;42.672;23.334;2023-05-02T05:56:41;4.0;;;2.6;;
40012;SDS011;37387;42.672;23.334;2023-05-02T05:57:41;3.9;;;2.5;;
40012;SDS011;37387;42.672;23.334;2023-05-02T05:58:41;3.9;;;2.8;;
40012;SDS011;37387;42.672;23.334;2023-05-02T05:59:41;5.3;;;2.3;;
40012;SDS011;37387;42.672;23.334;2023-05-02T06:00:41;3.8;;;2.4;;
40012;SDS011;37387;42.672;23.334;2023-05-02T06:01:41;2.8;;;2.3;;
40012;SDS011;37387;42.672;23.334;2023-05-02T06:02:41;2.8;;;2.5;;
40012;SDS011;37387;42.672;23.334;2023-05-02T06:03:41;4.1;;;2.0;;
40012;SDS011;37387;42.672;23.334;2023-05-02T06:04:42;4.4;;;2.2;;
40012;SDS011;37387;42.672;23.334;2023-05-02T06:07:42;8.2;;;2.4;;
40012;SDS011;37387;42.672;23.334;2023-05-02T06:09:42;3.9;;;1.8;;
40012;SDS011;37387;42.672;23.334;2023-05-02T06:10:42;4.8;;;2.3;;
40012;SDS011;37387;42.672;23.334;2023-05-02T06:11:42;4.8;;;2.1;;
40012;SDS011;37387;42.672;23.334;2023-05-02T06:12:42;3.6;;;1.8;;
40012;SDS011;37387;42.672;23.334;2023-05-02T06:13:42;3.3;;;2.0;;
40012;SDS011;37387;42.672;23.334;2023-05-02T06:14:42;3.3;;;2.6;;
40012;SDS011;37387;42.672;23.334;2023-05-02T06:15:42;6.0;;;2.1;;
40012;SDS011;37387;42.672;23.334;2023-05-02T06:16:42;4.1;;;2.2;;
40012;SDS011;37387;42.672;23.334;2023-05-02T06:17:42;5.0;;;2.4;;
40012;SDS011;37387;42.672;23.334;2023-05-02T06:18:42;3.7;;;2.6;;
40012;SDS011;37387;42.672;23.334;2023-05-02T06:19:42;3.7;;;2.4;;
40012;SDS011;37387;42.672;23.334;2023-05-02T06:20:42;2.9;;;1.9;;
40012;SDS011;37387;42.672;23.334;2023-05-02T06:21:42;2.9;;;2.2;;
40012;SDS011;37387;42.672;23.334;2023-05-02T06:22:43;2.4;;;1.9;;
40012;SDS011;37387;42.672;23.334;2023-05-02T06:23:43;2.4;;;2.0;;
40012;SDS011;37387;42.672;23.334;2023-05-02T06:25:43;3.3;;;2.4;;
40012;SDS011;37387;42.672;23.334;2023-05-02T06:26:43;3.7;;;1.5;;
40012;SDS011;37387;42.672;23.334;2023-05-02T06:27:43;3.7;;;2.1;;
40012;SDS011;37387;42.672;23.334;2023-05-02T06:28:43;3.1;;;1.8;;
40012;SDS011;37387;42.672;23.334;2023-05-02T06:29:43;4.9;;;2.2;;
40012;SDS011;37387;42.672;23.334;2023-05-02T06:30:43;3.0;;;1.8;;
40012;SDS011;37387;42.672;23.334;2023-05-02T06:31:43;3.6;;;2.1;;
40012;SDS011;37387;42.672;23.334;2023-05-02T06:32:43;2.9;;;1.8;;
40012;SDS011;37387;42.672;23.334;2023-05-02T06:33:43;3.2;;;2.2;;
40012;SDS011;37387;42.672;23.334;2023-05-02T06:35:49;3.8;;;2.1;;
40012;SDS011;37387;42.672;23.334;2023-05-02T06:36:43;4.0;;;1.9;;
40012;SDS011;37387;42.672;23.334;2023-05-02T06:37:43;2.7;;;2.3;;
40012;SDS011;37387;42.672;23.334;2023-05-02T06:39:44;3.1;;;2.0;;
40012;SDS011;37387;42.672;23.334;2023-05-02T06:40:44;3.4;;;1.7;;
40012;SDS011;37387;42.672;23.334;2023-05-02T06:41:44;3.3;;;2.0;;
40012;SDS011;37387;42.672;23.334;2023-05-02T06:43:44;3.4;;;2.2;;
40012;SDS011;37387;42.672;23.334;2023-05-02T06:44:44;2.6;;;2.0;;
40012;SDS011;37387;42.672;23.334;2023-05-02T06:45:44;2.6;;;1.6;;
40012;SDS011;37387;42.672;23.334;2023-05-02T06:46:44;2.8;;;2.2;;
40012;SDS011;37387;42.672;23.334;2023-05-02T06:47:44;3.2;;;1.9;;
40012;SDS011;37387;42.672;23.334;2023-05-02T06:48:44;2.4;;;2.0;;
40012;SDS011;37387;42.672;23.334;2023-05-02T06:49:44;3.2;;;2.1;;
40012;SDS011;37387;42.672;23.334;2023-05-02T06:50:44;2.5;;;2.0;;
40012;SDS011;37387;42.672;23.334;2023-05-02T06:52:45;3.2;;;2.2;;
40012;SDS011;37387;42.672;23.334;2023-05-02T06:53:45;3.0;;;1.8;;
40012;SDS011;37387;42.672;23.334;2023-05-02T06:54:45;3.0;;;2.1;;
40012;SDS011;37387;42.672;23.334;2023-05-02T06:56:45;3.6;;;2.0;;
40012;SDS011;37387;42.672;23.334;2023-05-02T06:57:45;2.4;;;1.5;;
40012;SDS011;37387;42.672;23.334;2023-05-02T06:58:45;3.3;;;1.9;;
40012;SDS011;37387;42.672;23.334;2023-05-02T07:00:45;2.3;;;1.6;;
40012;SDS011;37387;42.672;23.334;2023-05-02T07:01:45;2.4;;;1.7;;